Aviation Digital Data Service (ADDS)

Output produced by METARs form (1440 UTC 25 January 2020)
found at http://www.aviationweather.gov/metar/data/
 
LFRN 251430Z AUTO 12005KT 4300 BR OVC004 06/06 Q1016 TEMPO 1500 DZ BR
TAF AMD LFRN 251259Z 2512/2612 12005KT 0600 FG VV/// 
     BECMG 2513/2514 3000 BR OVC005 
     TEMPO 2514/2608 1500 DZ BR BKN002 
     PROB30 
     TEMPO 2520/2606 0500 FG VV/// 
     BECMG 2603/2606 21005KT 
     BECMG 2608/2610 20010KT 9999 NSW BKN015